createdAt,value
2023-04-08T00:01:37.609Z,0
2023-04-08T00:06:39.050Z,0.88715
2023-04-08T00:11:40.926Z,0
2023-04-08T00:16:42.553Z,0
2023-04-08T00:21:43.857Z,0
2023-04-08T00:26:45.141Z,0
2023-04-08T00:31:46.491Z,0
2023-04-08T00:36:47.769Z,0
2023-04-08T00:41:49.076Z,0.88715
2023-04-08T00:46:50.508Z,0
2023-04-08T00:51:51.888Z,0
2023-04-08T00:56:53.143Z,0
2023-04-08T01:01:54.960Z,0
2023-04-08T01:06:56.354Z,0.88715
2023-04-08T01:11:57.809Z,0
2023-04-08T01:16:59.187Z,0
2023-04-08T01:22:00.605Z,0
2023-04-08T01:27:01.863Z,0
2023-04-08T01:32:03.469Z,0.88715
2023-04-08T01:37:04.879Z,0
2023-04-08T01:42:06.168Z,0
2023-04-08T01:47:07.966Z,0
2023-04-08T01:52:09.344Z,0
2023-04-08T01:57:10.821Z,0.88715
2023-04-08T02:02:12.250Z,0.88715
2023-04-08T02:07:13.617Z,0
2023-04-08T02:12:14.938Z,0
2023-04-08T02:17:16.418Z,0
2023-04-08T02:22:17.674Z,0
2023-04-08T02:27:18.949Z,0
2023-04-08T02:32:20.356Z,0
2023-04-08T02:37:21.843Z,0.88715
2023-04-08T02:42:23.133Z,0.88715
2023-04-08T02:47:24.661Z,0
2023-04-08T02:52:25.958Z,0
2023-04-08T02:57:27.195Z,0.88715
2023-04-08T03:02:28.753Z,0
2023-04-08T03:07:30.080Z,0
2023-04-08T03:12:31.467Z,0
2023-04-08T03:17:33.002Z,0.88715
2023-04-08T03:22:34.507Z,0
2023-04-08T03:27:35.747Z,0
2023-04-08T03:32:37.427Z,0.88715
2023-04-08T03:37:39.215Z,0
2023-04-08T03:42:40.561Z,0
2023-04-08T03:47:42.134Z,0.88715
2023-04-08T03:52:43.651Z,0.88715
2023-04-08T03:57:44.961Z,0
2023-04-08T04:02:46.522Z,2.3237
2023-04-08T04:07:47.917Z,2.6926
2023-04-08T04:12:49.246Z,3.24595
2023-04-08T04:17:50.770Z,8.4467
2023-04-08T04:22:52.107Z,17.31745
2023-04-08T04:27:53.590Z,32.97485
2023-04-08T04:32:55.032Z,50.95595
2023-04-08T04:37:56.547Z,74.19295
2023-04-08T04:42:57.928Z,94.12885
2023-04-08T04:47:59.514Z,118.95175
2023-04-08T04:53:00.838Z,137.54135
2023-04-08T04:58:02.232Z,159.2476
2023-04-08T05:03:03.736Z,174.905
2023-04-08T05:08:05.073Z,191.1709
2023-04-08T05:13:06.374Z,207.25235
2023-04-08T05:18:07.794Z,219.7931
2023-04-08T05:23:09.202Z,238.3827
2023-04-08T05:28:10.549Z,251.29235
2023-04-08T05:33:11.880Z,292.82605
2023-04-08T05:38:13.144Z,271.542
2023-04-08T05:43:14.581Z,276.50315
2023-04-08T05:48:16.568Z,301.10545
2023-04-08T05:53:18.246Z,354.6627
2023-04-08T05:58:19.971Z,416.4822
2023-04-08T06:03:22.191Z,459.8224
2023-04-08T06:08:23.967Z,486.6381
2023-04-08T06:13:25.618Z,513.0849
2023-04-08T06:18:27.396Z,536.8391
2023-04-08T06:23:29.291Z,548.79035
2023-04-08T06:28:31.282Z,574.9234
2023-04-08T06:33:32.938Z,585.1043
2023-04-08T06:38:34.596Z,607.6415
2023-04-08T06:43:36.170Z,627.43095
2023-04-08T06:48:37.548Z,642.3334
2023-04-08T06:53:39.090Z,644.4555
2023-04-08T06:58:40.350Z,653.5297
2023-04-08T07:03:41.894Z,664.24495
2023-04-08T07:08:43.248Z,669.8336
2023-04-08T07:13:44.596Z,671.3282
2023-04-08T07:18:46.039Z,684.25685
2023-04-08T07:23:47.369Z,683.095
2023-04-08T07:28:48.883Z,704.85825
2023-04-08T07:33:50.745Z,720.05545
2023-04-08T07:38:52.403Z,731.58265
2023-04-08T07:43:54.001Z,744.401
2023-04-08T07:48:55.500Z,752.3875
2023-04-08T07:53:56.968Z,762.03405
2023-04-08T07:58:58.330Z,764.3406
2023-04-08T08:03:59.966Z,770.07755
2023-04-08T08:09:01.393Z,773.4908
2023-04-08T08:14:02.716Z,784.9077
2023-04-08T08:19:03.970Z,802.50275
2023-04-08T08:24:05.521Z,807.81565
2023-04-08T08:29:06.907Z,820.1548
2023-04-08T08:34:08.711Z,834.6332
2023-04-08T08:39:09.993Z,854.2382
2023-04-08T08:44:11.576Z,850.68035
2023-04-08T08:49:13.058Z,862.46615
2023-04-08T08:54:14.436Z,873.8279
2023-04-08T08:59:15.794Z,879.80445
2023-04-08T09:04:17.632Z,895.26025
2023-04-08T09:09:19.080Z,910.1627
2023-04-08T09:14:20.622Z,934.59955
2023-04-08T09:19:22.257Z,967.53825
2023-04-08T09:24:23.621Z,982.0718
2023-04-08T09:29:26.165Z,978.2002
2023-04-08T09:34:28.190Z,1002.1407
2023-04-08T09:39:29.691Z,1012.8731
2023-04-08T09:44:30.963Z,1038.8407
2023-04-08T09:49:32.529Z,1057.28385
2023-04-08T09:54:33.874Z,1097.8573
2023-04-08T09:59:35.488Z,1128.02925
2023-04-08T10:04:36.943Z,1133.1387
2023-04-08T10:09:38.665Z,1161.72475
2023-04-08T10:14:40.483Z,1195.38225
2023-04-08T10:19:42.286Z,1214.72865
2023-04-08T10:24:44.099Z,1250.82015
2023-04-08T10:29:45.880Z,1283.1865
2023-04-08T10:34:47.480Z,1323.26175
2023-04-08T10:39:49.040Z,1349.5241
2023-04-08T10:44:50.739Z,1387.64455
2023-04-08T10:49:52.048Z,1421.5968
2023-04-08T10:54:53.334Z,1467.5916
2023-04-08T10:59:54.840Z,1489.1324
2023-04-08T11:04:56.180Z,1526.27545
2023-04-08T11:09:57.486Z,1599.54615
2023-04-08T11:14:58.853Z,1579.79655
2023-04-08T11:20:00.452Z,1711.8614
2023-04-08T11:25:02.101Z,1755.07415
2023-04-08T11:30:03.390Z,1280.9087
2023-04-08T11:35:04.823Z,532.7696
2023-04-08T11:40:06.376Z,533.8763
2023-04-08T11:45:07.940Z,628.197
2023-04-08T11:50:09.382Z,564.9019
2023-04-08T11:55:11.200Z,556.1396
2023-04-08T12:00:12.803Z,579.9508
2023-04-08T12:05:14.588Z,565.5104
2023-04-08T12:10:16.436Z,574.4933
2023-04-08T12:15:18.029Z,519.8312
2023-04-08T12:20:19.903Z,505.4631
2023-04-08T12:25:21.548Z,467.55955
2023-04-08T12:30:23.113Z,548.1874
2023-04-08T12:35:24.845Z,1340.23535
2023-04-08T12:40:26.509Z,1236.5114
2023-04-08T12:45:28.094Z,1276.07685
2023-04-08T12:50:29.827Z,522.60955
2023-04-08T12:55:31.427Z,550.0509
2023-04-08T13:00:33.022Z,1795.20085
2023-04-08T13:05:43.152Z,1862.2744
2023-04-08T13:10:45.179Z,1872.16055
2023-04-08T13:15:51.550Z,1921.58205
2023-04-08T13:20:52.986Z,1866.13675
2023-04-08T13:25:54.307Z,1849.5877
2023-04-08T13:30:55.838Z,1816.1128
2023-04-08T13:35:57.475Z,1731.3492
2023-04-08T13:40:58.806Z,1745.78775
2023-04-08T13:46:00.242Z,1637.2718
2023-04-08T13:51:01.883Z,1661.7068
2023-04-08T13:56:03.369Z,1653.14795
2023-04-08T14:01:04.785Z,1652.317
2023-04-08T14:06:06.331Z,1615.2101
2023-04-08T14:11:07.607Z,1561.41325
2023-04-08T14:16:08.865Z,1507.9853
2023-04-08T14:21:10.210Z,1460.6252
2023-04-08T14:26:11.770Z,1417.9125
2023-04-08T14:31:13.102Z,1338.07575
2023-04-08T14:36:14.480Z,1286.93535
2023-04-08T14:41:15.847Z,1153.2656
2023-04-08T14:46:17.252Z,968.7882
2023-04-08T14:51:18.749Z,845.29935
2023-04-08T14:56:20.110Z,648.81555
2023-04-08T15:01:21.511Z,605.5875
2023-04-08T15:06:22.969Z,512.04815
2023-04-08T15:11:24.230Z,311.97825
2023-04-08T15:16:25.531Z,227.41255
2023-04-08T15:21:27.032Z,176.7875
2023-04-08T15:26:28.331Z,123.1941
2023-04-08T15:31:29.678Z,98.1126
2023-04-08T15:36:31.178Z,72.10885
2023-04-08T15:41:33.190Z,56.5066
2023-04-08T15:46:35.551Z,27.58965
2023-04-08T15:51:38.874Z,18.7189
2023-04-08T15:56:40.129Z,10.21705
2023-04-08T16:01:41.419Z,2.42955
2023-04-08T16:06:42.865Z,1.53075
2023-04-08T16:11:44.465Z,2.32725
2023-04-08T16:16:45.711Z,0.88715
2023-04-08T16:21:47.040Z,0.88715
2023-04-08T16:26:48.419Z,0.88715
2023-04-08T16:31:50.383Z,0
2023-04-08T16:36:53.747Z,0
2023-04-08T16:41:55.093Z,0.88715
2023-04-08T16:46:56.590Z,0.88715
2023-04-08T16:51:57.980Z,0
2023-04-08T16:56:59.215Z,0.88715
2023-04-08T17:02:00.606Z,0
2023-04-08T17:07:02.012Z,0
2023-04-08T17:12:03.275Z,0
2023-04-08T17:17:04.760Z,0.88715
2023-04-08T17:22:06.275Z,0.88715
2023-04-08T17:27:07.569Z,0.88715
2023-04-08T17:32:09.017Z,0.88715
2023-04-08T17:37:10.566Z,0.88715
2023-04-08T17:42:11.895Z,0.88715
2023-04-08T17:47:13.766Z,0.88715
2023-04-08T17:52:15.237Z,0.88715
2023-04-08T17:57:16.789Z,0.88715
2023-04-08T18:02:18.520Z,0.88715
2023-04-08T18:07:20.452Z,0.88715
2023-04-08T18:12:22.471Z,0.88715
2023-04-08T18:17:24.181Z,0.88715
2023-04-08T18:22:25.987Z,0.88715
2023-04-08T18:27:27.708Z,0.88715
2023-04-08T18:32:29.355Z,0.88715
2023-04-08T18:37:31.308Z,0.88715
2023-04-08T18:42:32.925Z,0.88715
2023-04-08T18:47:34.643Z,0.88715
2023-04-08T18:52:36.430Z,0.88715
2023-04-08T18:57:38.095Z,0.88715
2023-04-08T19:02:39.822Z,0.88715
2023-04-08T19:07:41.469Z,0.88715
2023-04-08T19:12:43.100Z,0.88715
2023-04-08T19:17:44.966Z,0.88715
2023-04-08T19:22:46.742Z,0.88715
2023-04-08T19:27:48.765Z,0.88715
2023-04-08T19:32:50.573Z,0.88715
2023-04-08T19:37:52.458Z,0.88715
2023-04-08T19:42:54.138Z,0.88715
2023-04-08T19:47:55.898Z,0.88715
2023-04-08T19:52:57.897Z,0.88715
2023-04-08T19:57:59.162Z,0.88715
2023-04-08T20:08:01.807Z,0.88715
2023-04-08T20:13:03.191Z,0.88715
2023-04-08T20:18:04.773Z,0.88715
2023-04-08T20:23:06.463Z,0.88715
2023-04-08T20:28:07.706Z,0.88715
2023-04-08T20:33:09.051Z,0.88715
2023-04-08T20:38:10.556Z,0.88715
2023-04-08T20:43:11.901Z,0.88715
2023-04-08T20:48:13.294Z,0.88715
2023-04-08T20:53:14.914Z,0.88715
2023-04-08T20:58:16.230Z,0.88715
2023-04-08T21:03:17.704Z,0.88715
2023-04-08T21:08:19.177Z,0.88715
2023-04-08T21:13:20.580Z,0.88715
2023-04-08T21:18:21.950Z,0.88715
2023-04-08T21:23:23.639Z,0.88715
2023-04-08T21:28:25.221Z,0.88715
2023-04-08T21:33:26.907Z,0.88715
2023-04-08T21:38:28.461Z,0.88715
2023-04-08T21:43:30.310Z,0.88715
2023-04-08T21:48:31.988Z,0.88715
2023-04-08T21:53:33.525Z,0.88715
2023-04-08T21:58:35.056Z,0.88715
2023-04-08T22:03:36.747Z,0.88715
2023-04-08T22:08:38.461Z,0.88715
2023-04-08T22:13:40.084Z,0.88715
2023-04-08T22:18:41.874Z,0.88715
2023-04-08T22:23:43.527Z,0.88715
2023-04-08T22:28:45.232Z,0.88715
2023-04-08T22:33:47.016Z,0.88715
2023-04-08T22:38:48.984Z,0.88715
2023-04-08T22:43:50.771Z,0.88715
2023-04-08T22:48:52.782Z,0.88715
2023-04-08T22:53:54.504Z,0.88715
2023-04-08T22:58:56.253Z,0.88715
2023-04-08T23:03:57.924Z,0.88715
2023-04-08T23:08:59.355Z,0.88715
2023-04-08T23:14:01.121Z,0.88715
2023-04-08T23:19:02.619Z,0.88715
2023-04-08T23:24:03.953Z,0.88715
2023-04-08T23:29:05.225Z,0.88715
2023-04-08T23:34:07.183Z,0.88715
2023-04-08T23:39:08.639Z,0.88715
2023-04-08T23:44:10.020Z,0.88715
2023-04-08T23:49:11.447Z,0.88715
2023-04-08T23:54:12.963Z,0.88715
2023-04-08T23:59:14.329Z,0.88715
